Terminal Aerodrome Forecast
Issued by NWS Tampa Bay Area, FL

Home | Current Version | Previous Version | Text Only | Print | Product List | Glossary On
Versions: 1 2 3 4 5 6 7 8 9 10 11 12 13
000
FTUS42 KTBW 192339
TAFFMY
TAF
KFMY 192339Z 2000/2024 31010KT P6SM SKC
     FM200300 30004KT P6SM FEW035 SCT250
     FM200900 VRB03KT 6SM BR SCT015
     FM201300 02007KT P6SM FEW030
     FM201900 29012KT P6SM SKC=

USA.gov is the U.S. government's official web portal to all federal, state and local government web resources and services.